METAR Luftfahrt Wetterdaten     LSZH Zürich Airport
Temperatur
3°C Temperatur
0°C Taupunkt
81% Feuchtigkeit



Wind
10 KM/h
6 MPS
3 M/S
5 KTS



330°
NNW
Aktuelle Wetterlage

Bewölkt Bewölkt
Luftdruck 1019.92 (hPa) - 30.12 (inHg)
Sichtweite 6.2 (Meile) - 10 (Km)
Flughafen
Flughafen Code LSZH

Position : Zürich Airport
Entfernung: 60 (Km)

Metar:
LSZH 020020Z AUTO 33005KT 9999 OVC038 03/00 Q1020 NOSIG

Zeit: 02-12-2022 01:20 CET